createdAt,value
2022-08-05T00:00:46.387Z,6.32
2022-08-05T00:03:15.845Z,4.57
2022-08-05T00:06:06.702Z,5.20
2022-08-05T00:08:35.584Z,4.63
2022-08-05T00:11:23.907Z,4.93
2022-08-05T00:13:59.069Z,3.42
2022-08-05T00:16:36.264Z,5.47
2022-08-05T00:19:16.593Z,3.28
2022-08-05T00:21:49.837Z,3.38
2022-08-05T00:24:24.110Z,3.47
2022-08-05T00:26:54.162Z,2.95
2022-08-05T00:29:25.389Z,3.00
2022-08-05T00:32:10.996Z,3.08
2022-08-05T00:35:03.455Z,2.40
2022-08-05T00:37:51.301Z,2.42
2022-08-05T00:40:27.236Z,2.85
2022-08-05T00:43:01.018Z,3.17
2022-08-05T00:45:38.628Z,2.65
2022-08-05T00:48:13.144Z,2.10
2022-08-05T00:50:44.252Z,2.70
2022-08-05T00:54:00.868Z,2.10
2022-08-05T00:56:05.434Z,3.50
2022-08-05T00:58:39.898Z,3.85
2022-08-05T01:01:12.889Z,4.88
2022-08-05T01:03:41.456Z,8.27
2022-08-05T01:06:14.114Z,7.53
2022-08-05T01:08:44.757Z,3.53
2022-08-05T01:11:33.498Z,4.25
2022-08-05T01:14:15.569Z,1.73
2022-08-05T01:16:50.276Z,2.13
2022-08-05T01:19:56.278Z,1.95
2022-08-05T01:23:00.564Z,2.22
2022-08-05T01:26:15.250Z,2.33
2022-08-05T01:28:49.251Z,2.20
2022-08-05T01:31:27.757Z,2.72
2022-08-05T01:34:03.296Z,2.47
2022-08-05T01:36:42.192Z,2.63
2022-08-05T01:39:36.096Z,2.53
2022-08-05T01:42:09.730Z,1.95
2022-08-05T01:44:41.079Z,2.20
2022-08-05T01:47:11.492Z,2.15
2022-08-05T01:50:01.923Z,2.08
2022-08-05T01:52:34.581Z,2.53
2022-08-05T01:55:08.338Z,2.03
2022-08-05T01:58:09.946Z,2.63
2022-08-05T02:00:33.075Z,2.70
2022-08-05T02:03:24.043Z,2.97
2022-08-05T02:05:57.861Z,3.08
2022-08-05T02:08:31.406Z,2.90
2022-08-05T02:11:06.702Z,2.97
2022-08-05T02:13:53.354Z,3.17
2022-08-05T02:16:27.800Z,3.10
2022-08-05T02:19:01.172Z,2.90
2022-08-05T02:21:46.703Z,2.92
2022-08-05T02:24:23.546Z,3.00
2022-08-05T02:26:56.014Z,2.92
2022-08-05T02:29:58.659Z,2.78
2022-08-05T02:32:24.073Z,2.80
2022-08-05T02:35:09.617Z,3.30
2022-08-05T02:37:47.854Z,3.60
2022-08-05T02:40:24.307Z,3.33
2022-08-05T02:42:55.461Z,3.67
2022-08-05T02:45:25.664Z,3.45
2022-08-05T02:48:06.729Z,3.23
2022-08-05T02:50:43.956Z,3.33
2022-08-05T02:53:18.811Z,3.20
2022-08-05T02:55:55.099Z,3.88
2022-08-05T03:01:02.312Z,3.95
2022-08-05T03:04:02.633Z,3.97
2022-08-05T03:06:56.472Z,3.72
2022-08-05T03:09:15.942Z,3.60
2022-08-05T03:11:56.349Z,3.92
2022-08-05T03:14:26.771Z,4.90
2022-08-05T03:16:55.137Z,4.05
2022-08-05T03:19:34.163Z,4.07
2022-08-05T03:24:46.996Z,3.50
2022-08-05T03:27:18.401Z,4.53
2022-08-05T03:30:08.318Z,4.50
2022-08-05T03:32:35.158Z,4.28
2022-08-05T03:35:05.773Z,4.30
2022-08-05T03:37:40.971Z,4.43
2022-08-05T03:43:15.968Z,4.50
2022-08-05T03:45:58.083Z,4.35
2022-08-05T03:48:29.013Z,4.45
2022-08-05T03:52:38.976Z,4.35
2022-08-05T03:55:50.064Z,4.93
2022-08-05T03:56:50.112Z,5.22
2022-08-05T03:59:29.223Z,4.20
2022-08-05T04:02:39.182Z,4.95
2022-08-05T04:05:10.378Z,5.72
2022-08-05T04:07:57.220Z,5.20
2022-08-05T04:10:30.879Z,5.10
2022-08-05T04:13:04.172Z,5.13
2022-08-05T04:18:09.815Z,4.60
2022-08-05T04:20:41.384Z,5.15
2022-08-05T04:23:12.537Z,5.45
2022-08-05T04:25:57.621Z,4.97
2022-08-05T04:28:30.805Z,5.03
2022-08-05T04:33:54.244Z,4.68
2022-08-05T04:36:46.144Z,5.10
2022-08-05T04:39:09.273Z,4.95
2022-08-05T04:41:39.740Z,5.82
2022-08-05T04:44:09.981Z,5.72
2022-08-05T04:46:39.172Z,5.05
2022-08-05T04:49:12.411Z,5.28
2022-08-05T04:51:44.190Z,5.68
2022-08-05T04:54:14.807Z,5.45
2022-08-05T04:56:43.870Z,5.80
2022-08-05T04:59:24.302Z,5.55
2022-08-05T05:02:07.481Z,4.75
2022-08-05T05:04:50.487Z,4.78
2022-08-05T05:07:23.754Z,5.13
2022-08-05T05:09:59.299Z,4.43
2022-08-05T05:12:30.617Z,4.65
2022-08-05T05:14:58.873Z,4.22
2022-08-05T05:17:56.180Z,4.28
2022-08-05T05:20:16.188Z,3.88
2022-08-05T05:22:48.679Z,4.05
2022-08-05T05:25:18.310Z,3.72
2022-08-05T05:27:53.780Z,3.42
2022-08-05T05:30:31.030Z,3.40
2022-08-05T05:33:09.030Z,3.35
2022-08-05T05:35:45.809Z,3.17
2022-08-05T05:38:14.752Z,3.42
2022-08-05T05:40:52.637Z,3.00
2022-08-05T05:43:57.598Z,3.20
2022-08-05T05:46:17.315Z,2.60
2022-08-05T05:48:48.819Z,2.92
2022-08-05T05:51:22.134Z,3.70
2022-08-05T05:53:57.635Z,2.97
2022-08-05T05:56:33.347Z,3.03
2022-08-05T05:59:05.287Z,3.08
2022-08-05T06:01:37.688Z,3.13
2022-08-05T06:04:12.250Z,3.17
2022-08-05T06:06:42.747Z,2.97
2022-08-05T06:09:17.312Z,3.30
2022-08-05T06:11:59.216Z,3.17
2022-08-05T06:14:30.647Z,3.22
2022-08-05T06:16:59.204Z,3.28
2022-08-05T06:19:35.441Z,3.35
2022-08-05T06:22:04.568Z,4.15
2022-08-05T06:24:35.617Z,4.10
2022-08-05T06:27:05.942Z,3.17
2022-08-05T06:29:53.397Z,3.28
2022-08-05T06:32:34.237Z,3.00
2022-08-05T06:35:06.083Z,3.08
2022-08-05T06:37:57.713Z,2.92
2022-08-05T06:40:27.846Z,2.55
2022-08-05T06:42:57.755Z,2.33
2022-08-05T06:45:44.379Z,3.00
2022-08-05T06:48:54.511Z,2.80
2022-08-05T06:51:09.368Z,2.65
2022-08-05T06:53:39.266Z,3.05
2022-08-05T06:56:25.865Z,3.08
2022-08-05T06:58:57.350Z,3.20
2022-08-05T07:01:27.651Z,3.05
2022-08-05T07:04:03.187Z,3.35
2022-08-05T07:06:32.034Z,3.67
2022-08-05T07:09:04.209Z,2.90
2022-08-05T07:11:37.173Z,2.63
2022-08-05T07:14:29.573Z,2.65
2022-08-05T07:17:58.837Z,3.15
2022-08-05T07:22:42.470Z,3.35
2022-08-05T07:25:23.553Z,3.00
2022-08-05T07:28:07.248Z,3.05
2022-08-05T07:30:41.354Z,3.47
2022-08-05T07:33:16.879Z,3.10
2022-08-05T07:36:04.000Z,3.35
2022-08-05T07:38:43.676Z,3.42
2022-08-05T07:42:09.499Z,2.67
2022-08-05T07:44:14.053Z,2.45
2022-08-05T07:46:50.283Z,3.40
2022-08-05T07:49:19.129Z,2.95
2022-08-05T07:51:53.717Z,3.17
2022-08-05T07:54:31.190Z,2.67
2022-08-05T07:57:23.694Z,2.78
2022-08-05T07:59:51.209Z,2.65
2022-08-05T08:02:31.397Z,3.20
2022-08-05T08:05:15.173Z,3.22
2022-08-05T08:08:00.274Z,2.72
2022-08-05T08:10:29.413Z,2.92
2022-08-05T08:12:58.848Z,2.35
2022-08-05T08:15:37.324Z,2.42
2022-08-05T08:18:21.020Z,2.78
2022-08-05T08:21:02.410Z,2.47
2022-08-05T08:24:02.637Z,2.63
2022-08-05T08:26:26.946Z,2.58
2022-08-05T08:29:09.732Z,2.50
2022-08-05T08:31:48.393Z,1.98
2022-08-05T08:34:18.719Z,2.20
2022-08-05T08:37:03.208Z,2.58
2022-08-05T08:39:33.419Z,2.35
2022-08-05T08:42:32.395Z,2.55
2022-08-05T08:45:24.352Z,2.10
2022-08-05T08:48:06.258Z,2.03
2022-08-05T08:51:03.354Z,2.27
2022-08-05T08:53:36.930Z,1.83
2022-08-05T08:56:06.607Z,1.70
2022-08-05T08:58:37.241Z,1.83
2022-08-05T09:01:17.129Z,2.08
2022-08-05T09:03:48.194Z,1.67
2022-08-05T09:06:27.868Z,1.58
2022-08-05T09:08:58.169Z,1.73
2022-08-05T09:11:51.201Z,1.90
2022-08-05T09:14:58.677Z,1.90
2022-08-05T09:17:09.466Z,2.20
2022-08-05T09:19:55.179Z,2.40
2022-08-05T09:23:09.315Z,1.92
2022-08-05T09:26:02.417Z,2.40
2022-08-05T09:28:31.978Z,2.50
2022-08-05T09:31:23.483Z,2.70
2022-08-05T09:33:56.694Z,3.08
2022-08-05T09:39:18.135Z,2.97
2022-08-05T09:42:00.898Z,2.92
2022-08-05T09:44:37.900Z,2.72
2022-08-05T09:47:12.760Z,2.45
2022-08-05T09:50:01.610Z,3.38
2022-08-05T09:52:33.735Z,2.75
2022-08-05T09:57:54.534Z,3.20
2022-08-05T10:00:27.576Z,2.72
2022-08-05T10:02:59.030Z,3.00
2022-08-05T10:05:32.598Z,2.80
2022-08-05T10:08:35.379Z,2.35
2022-08-05T10:10:54.077Z,2.58
2022-08-05T10:13:45.696Z,2.60
2022-08-05T10:16:41.589Z,2.40
2022-08-05T10:19:23.528Z,2.80
2022-08-05T10:22:00.565Z,2.28
2022-08-05T10:24:29.375Z,2.70
2022-08-05T10:27:02.299Z,2.55
2022-08-05T10:30:06.771Z,2.20
2022-08-05T10:33:00.697Z,2.80
2022-08-05T10:35:11.056Z,2.58
2022-08-05T10:37:44.666Z,2.88
2022-08-05T10:40:27.996Z,2.90
2022-08-05T10:43:05.748Z,2.50
2022-08-05T10:45:40.497Z,3.05
2022-08-05T10:48:52.816Z,3.00
2022-08-05T10:51:29.156Z,3.22
2022-08-05T10:54:00.814Z,5.00
2022-08-05T10:56:32.131Z,3.30
2022-08-05T11:00:02.042Z,5.65
2022-08-05T11:02:14.739Z,3.20
2022-08-05T11:04:57.692Z,2.72
2022-08-05T11:07:32.726Z,3.08
2022-08-05T11:10:27.578Z,2.42
2022-08-05T11:12:57.844Z,2.78
2022-08-05T11:16:00.824Z,3.08
2022-08-05T11:18:29.813Z,2.70
2022-08-05T11:21:02.117Z,2.53
2022-08-05T11:24:03.996Z,2.30
2022-08-05T11:26:28.129Z,2.00
2022-08-05T11:29:02.405Z,2.15
2022-08-05T11:31:57.342Z,2.75
2022-08-05T11:34:51.421Z,2.45
2022-08-05T11:38:30.134Z,2.90
2022-08-05T11:41:35.528Z,2.75
2022-08-05T11:44:05.846Z,2.45
2022-08-05T11:47:10.297Z,2.28
2022-08-05T11:49:28.848Z,1.92
2022-08-05T11:52:11.149Z,1.80
2022-08-05T11:54:41.544Z,1.27
2022-08-05T11:57:24.887Z,1.30
2022-08-05T11:59:54.458Z,1.17
2022-08-05T12:02:30.250Z,1.38
2022-08-05T12:05:07.637Z,1.10
2022-08-05T12:08:09.216Z,0.90
2022-08-05T12:10:45.446Z,0.98
2022-08-05T12:13:47.430Z,1.00
2022-08-05T12:16:14.879Z,0.70
2022-08-05T12:18:49.399Z,0.77
2022-08-05T12:21:26.870Z,0.60
2022-08-05T12:24:04.781Z,1.00
2022-08-05T12:26:35.494Z,1.10
2022-08-05T12:29:05.663Z,0.80
2022-08-05T12:31:43.749Z,0.73
2022-08-05T12:34:20.588Z,0.57
2022-08-05T12:36:53.382Z,0.75
2022-08-05T12:39:23.632Z,0.75
2022-08-05T12:44:33.713Z,0.60
2022-08-05T12:47:03.969Z,0.98
2022-08-05T12:50:04.311Z,0.70
2022-08-05T12:52:41.734Z,0.65
2022-08-05T12:55:23.782Z,0.95
2022-08-05T12:58:48.441Z,1.25
2022-08-05T13:02:03.682Z,0.98
2022-08-05T13:03:42.155Z,0.80
2022-08-05T13:06:17.014Z,0.90
2022-08-05T13:08:51.454Z,0.80
2022-08-05T13:11:25.572Z,0.60
2022-08-05T13:14:20.352Z,0.55
2022-08-05T13:16:57.089Z,0.30
2022-08-05T13:19:27.584Z,0.20
2022-08-05T13:22:28.363Z,0.10
2022-08-05T13:25:05.562Z,0.40
2022-08-05T13:27:39.180Z,0.22
2022-08-05T13:30:35.066Z,0.20
2022-08-05T13:33:01.113Z,0.40
2022-08-05T13:35:42.943Z,0.38
2022-08-05T13:38:28.237Z,0.30
2022-08-05T13:41:01.594Z,0.17
2022-08-05T13:43:43.441Z,0.30
2022-08-05T13:46:16.340Z,0.20
2022-08-05T13:49:01.001Z,0.17
2022-08-05T13:54:12.406Z,0.28
2022-08-05T13:56:45.199Z,0.25
2022-08-05T13:59:21.138Z,0.30
2022-08-05T14:01:57.607Z,0.10
2022-08-05T14:04:50.102Z,0.30
2022-08-05T14:07:25.439Z,0.13
2022-08-05T14:12:42.952Z,0.20
2022-08-05T14:16:05.536Z,0.30
2022-08-05T14:18:01.418Z,0.20
2022-08-05T14:20:30.723Z,0.20
2022-08-05T14:22:59.084Z,0.20
2022-08-05T14:25:30.323Z,0.40
2022-08-05T14:28:00.072Z,0.30
2022-08-05T14:30:29.895Z,0.20
2022-08-05T14:32:58.773Z,0.28
2022-08-05T14:35:50.088Z,0.20
2022-08-05T14:38:27.666Z,0.20
2022-08-05T14:41:01.938Z,0.10
2022-08-05T14:43:59.416Z,0.15
2022-08-05T14:46:28.497Z,0.45
2022-08-05T14:48:59.651Z,7.00
2022-08-05T14:51:32.093Z,2.22
2022-08-05T14:54:26.565Z,0.50
2022-08-05T14:56:48.942Z,0.30
2022-08-05T14:59:21.813Z,1.20
2022-08-05T15:01:50.607Z,2.00
2022-08-05T15:04:20.446Z,0.80
2022-08-05T15:06:51.730Z,0.40
2022-08-05T15:09:51.865Z,0.30
2022-08-05T15:12:11.582Z,0.40
2022-08-05T15:14:49.834Z,0.43
2022-08-05T15:17:47.231Z,0.38
2022-08-05T15:20:18.801Z,0.20
2022-08-05T15:22:54.354Z,0.13
2022-08-05T15:25:41.197Z,0.10
2022-08-05T15:28:14.716Z,0.13
2022-08-05T15:30:46.631Z,0.20
2022-08-05T15:33:56.922Z,0.10
2022-08-05T15:36:17.690Z,0.40
2022-08-05T15:40:41.650Z,0.30
2022-08-05T15:41:57.835Z,0.20
2022-08-05T15:44:30.074Z,0.30
2022-08-05T15:47:03.720Z,0.20
2022-08-05T15:49:53.622Z,0.20
2022-08-05T15:52:29.188Z,1.98
2022-08-05T15:55:15.440Z,1.67
2022-08-05T15:57:45.266Z,0.50
2022-08-05T16:00:17.015Z,1.52
2022-08-05T16:03:02.625Z,0.30
2022-08-05T16:05:31.409Z,0.20
2022-08-05T16:08:00.058Z,0.30
2022-08-05T16:10:28.554Z,0.20
2022-08-05T16:12:57.596Z,0.20
2022-08-05T16:15:32.317Z,0.20
2022-08-05T16:18:04.243Z,0.20
2022-08-05T16:20:37.299Z,0.25
2022-08-05T16:23:05.667Z,0.20
2022-08-05T16:25:37.044Z,0.43
2022-08-05T16:28:09.505Z,0.15
2022-08-05T16:30:39.018Z,0.40
2022-08-05T16:33:11.367Z,0.25
2022-08-05T16:35:42.210Z,0.38
2022-08-05T16:38:24.132Z,1.65
2022-08-05T16:41:00.578Z,0.70
2022-08-05T16:43:31.888Z,0.40
2022-08-05T16:46:06.331Z,0.63
2022-08-05T16:48:42.331Z,0.40
2022-08-05T16:51:11.088Z,0.10
2022-08-05T16:54:06.167Z,0.22
2022-08-05T16:56:33.786Z,0.20
2022-08-05T16:59:07.987Z,0.20
2022-08-05T17:01:54.925Z,0.10
2022-08-05T17:04:28.244Z,0.30
2022-08-05T17:07:01.209Z,0.30
2022-08-05T17:09:55.953Z,0.30
2022-08-05T17:12:22.579Z,0.20
2022-08-05T17:15:09.271Z,0.60
2022-08-05T17:17:42.674Z,0.20
2022-08-05T17:20:14.608Z,0.20
2022-08-05T17:22:43.289Z,0.20
2022-08-05T17:25:34.074Z,0.10
2022-08-05T17:28:02.944Z,0.20
2022-08-05T17:30:31.473Z,0.30
2022-08-05T17:32:59.757Z,0.20
2022-08-05T17:35:32.607Z,0.30
2022-08-05T17:38:17.807Z,0.30
2022-08-05T17:40:46.259Z,0.20
2022-08-05T17:43:15.919Z,0.22
2022-08-05T17:45:44.299Z,0.30
2022-08-05T17:48:13.211Z,0.60
2022-08-05T17:53:13.585Z,0.38
2022-08-05T17:55:42.982Z,0.30
2022-08-05T17:58:16.246Z,0.30
2022-08-05T18:00:50.585Z,0.20
2022-08-05T18:03:48.459Z,0.30
2022-08-05T18:06:11.899Z,0.60
2022-08-05T18:08:52.485Z,0.30
2022-08-05T18:11:23.738Z,0.40
2022-08-05T18:13:53.225Z,0.47
2022-08-05T18:16:21.610Z,0.30
2022-08-05T18:18:50.791Z,0.30
2022-08-05T18:21:22.969Z,0.50
2022-08-05T18:23:54.996Z,0.28
2022-08-05T18:26:27.445Z,0.17
2022-08-05T18:28:58.301Z,0.20
2022-08-05T18:31:33.035Z,0.25
2022-08-05T18:34:05.803Z,0.20
2022-08-05T18:36:36.466Z,0.25
2022-08-05T18:39:06.443Z,0.40
2022-08-05T18:41:55.015Z,0.25
2022-08-05T18:44:33.391Z,0.30
2022-08-05T18:47:04.764Z,0.17
2022-08-05T18:49:57.828Z,0.20
2022-08-05T18:52:38.194Z,0.40
2022-08-05T18:55:10.586Z,0.75
2022-08-05T18:57:49.870Z,0.40
2022-08-05T19:00:27.247Z,0.50
2022-08-05T19:03:03.718Z,1.08
2022-08-05T19:06:12.384Z,0.50
2022-08-05T19:08:30.767Z,0.50
2022-08-05T19:11:04.857Z,0.45
2022-08-05T19:13:36.609Z,0.43
2022-08-05T19:16:25.116Z,0.63
2022-08-05T19:18:56.696Z,0.30
2022-08-05T19:21:29.478Z,0.37
2022-08-05T19:24:12.373Z,0.50
2022-08-05T19:26:43.804Z,0.30
2022-08-05T19:29:35.479Z,0.52
2022-08-05T19:34:37.376Z,0.30
2022-08-05T19:37:06.870Z,0.35
2022-08-05T19:39:45.469Z,0.13
2022-08-05T19:42:35.332Z,0.40
2022-08-05T19:45:06.496Z,0.40
2022-08-05T19:47:37.156Z,0.85
2022-08-05T19:50:10.454Z,0.57
2022-08-05T19:52:41.154Z,0.70
2022-08-05T19:56:14.124Z,0.38
2022-08-05T19:58:07.033Z,0.57
2022-08-05T20:00:48.761Z,0.57
2022-08-05T20:03:17.641Z,0.32
2022-08-05T20:05:51.325Z,0.38
2022-08-05T20:08:20.357Z,0.50
2022-08-05T20:10:50.089Z,0.30
2022-08-05T20:13:29.828Z,0.50
2022-08-05T20:16:08.184Z,0.50
2022-08-05T20:18:37.326Z,1.92
2022-08-05T20:21:07.197Z,0.60
2022-08-05T20:23:39.780Z,0.43
2022-08-05T20:26:20.761Z,0.40
2022-08-05T20:28:51.219Z,0.52
2022-08-05T20:31:37.266Z,0.63
2022-08-05T20:34:11.700Z,0.50
2022-08-05T20:36:43.243Z,0.50
2022-08-05T20:39:13.011Z,0.50
2022-08-05T20:41:45.222Z,0.40
2022-08-05T20:44:18.721Z,0.50
2022-08-05T20:46:57.891Z,0.40
2022-08-05T20:49:26.449Z,0.70
2022-08-05T20:51:55.355Z,0.90
2022-08-05T20:54:42.770Z,0.77
2022-08-05T20:57:14.348Z,0.77
2022-08-05T21:00:10.635Z,0.75
2022-08-05T21:02:34.994Z,0.60
2022-08-05T21:05:09.235Z,0.70
2022-08-05T21:07:50.849Z,0.50
2022-08-05T21:10:21.533Z,0.63
2022-08-05T21:13:02.647Z,0.50
2022-08-05T21:15:38.142Z,0.70
2022-08-05T21:18:06.699Z,0.95
2022-08-05T21:20:35.545Z,0.70
2022-08-05T21:23:04.193Z,0.90
2022-08-05T21:25:34.363Z,0.68
2022-08-05T21:28:04.882Z,0.80
2022-08-05T21:30:33.157Z,0.90
2022-08-05T21:33:01.739Z,1.00
2022-08-05T21:35:43.660Z,0.88
2022-08-05T21:38:20.269Z,0.93
2022-08-05T21:40:48.575Z,0.77
2022-08-05T21:43:24.667Z,0.90
2022-08-05T21:45:57.780Z,0.63
2022-08-05T21:48:29.083Z,1.20
2022-08-05T21:51:00.451Z,0.75
2022-08-05T21:53:28.760Z,0.60
2022-08-05T21:56:05.619Z,0.82
2022-08-05T21:58:42.123Z,1.20
2022-08-05T22:01:11.231Z,0.90
2022-08-05T22:03:53.684Z,1.05
2022-08-05T22:06:34.912Z,0.90
2022-08-05T22:09:14.651Z,0.80
2022-08-05T22:11:46.734Z,0.85
2022-08-05T22:14:33.412Z,0.95
2022-08-05T22:17:07.339Z,0.70
2022-08-05T22:20:02.971Z,0.90
2022-08-05T22:22:26.776Z,0.88
2022-08-05T22:25:18.136Z,1.20
2022-08-05T22:28:08.391Z,0.70
2022-08-05T22:30:55.272Z,0.90
2022-08-05T22:33:56.911Z,1.10
2022-08-05T22:36:15.395Z,0.80
2022-08-05T22:38:48.707Z,0.70
2022-08-05T22:42:04.299Z,0.70
2022-08-05T22:44:08.320Z,0.73
2022-08-05T22:46:40.104Z,0.90
2022-08-05T22:49:23.530Z,0.70
2022-08-05T22:52:05.050Z,0.80
2022-08-05T22:54:35.239Z,0.93
2022-08-05T22:57:03.668Z,0.65
2022-08-05T22:59:48.559Z,0.95
2022-08-05T23:02:29.331Z,0.93
2022-08-05T23:05:01.588Z,0.90
2022-08-05T23:07:43.835Z,1.10
2022-08-05T23:10:14.949Z,0.75
2022-08-05T23:12:43.892Z,1.20
2022-08-05T23:15:13.108Z,1.05
2022-08-05T23:18:01.756Z,1.30
2022-08-05T23:20:32.692Z,1.05
2022-08-05T23:23:03.550Z,1.08
2022-08-05T23:25:51.955Z,1.00
2022-08-05T23:28:24.045Z,1.00
2022-08-05T23:30:57.195Z,0.90
2022-08-05T23:34:05.140Z,1.25
2022-08-05T23:36:38.623Z,0.98
2022-08-05T23:39:08.885Z,1.30
2022-08-05T23:41:41.103Z,1.17
2022-08-05T23:44:17.493Z,1.00
2022-08-05T23:46:48.279Z,0.90
2022-08-05T23:49:23.636Z,0.93
2022-08-05T23:52:13.576Z,0.80
2022-08-05T23:54:45.920Z,0.90
2022-08-05T23:57:14.352Z,1.33
